Garwood, Texas
Current Conditions -  °F | °C
As of 11:55 AM on Saturday 25 Oct 2014 (Local Time) from KELA Reporting Station
Clear Clear  
Wind Chill: 78°   Ceiling: Unl
Heat Index: 79°   Visibility: 10mi
Dew Point: 59°   Wind: 0mph
Humidity: 53%   Direction: NA
Pressure: 30.18"   Gusts: NA
Location:  29.45°N, 96.4°W
Report Text: KELA 251655Z AUTO 00000KT 10SM CLR 25/15 A3018 RMK AO2 T02540151
Loading
Personal Weather Stations






























Interactive Weather Map
Tropical Storm Tracking
New forecast layout! Learn more

10-Day Weather Forecast

Advertisements
Track Severe Weather on mobile